Stations météo

réclame
Mon MeteoGroup
Cairnwell, Grande-Bretagne (3072): Température de l'air & dewpoint: 08.08.2018 20:00:00 - 14.08.2018 20:00:00 (BST)Cairnwell, Grande-Bretagne (3072): Vitesse du vent & gusts: 08.08.2018 20:00:00 - 14.08.2018 20:00:00 (BST)Cairnwell, Grande-Bretagne (3072): Direction du vent: 08.08.2018 20:00:00 - 14.08.2018 20:00:00 (BST)
Date & Time tt [°C] td [°C] ff [km/h] ff [knt] fx [km/h] fx [knt] dd
14.08.2018 20:00:00 - - - - - - -
14.08.2018 19:00:00 10,9 10,9 41 22 54 29 WSW
14.08.2018 18:00:00 11,3 10,4 35 19 61 33 WSW
14.08.2018 17:00:00 11,4 11,4 37 20 57 31 SW
14.08.2018 16:00:00 11,0 10,9 29 16 52 28 SSW
14.08.2018 15:00:00 10,5 10,5 37 20 48 26 SW
14.08.2018 14:00:00 10,0 10,0 28 15 - - SW
14.08.2018 13:00:00 9,7 9,6 28 15 46 25 SW
14.08.2018 12:00:00 - - - - - - -
14.08.2018 11:00:00 9,0 9,0 29 16 46 25 W
14.08.2018 10:00:00 8,9 8,8 16 9 - - SSW
14.08.2018 09:00:00 8,7 8,7 15 8 - - WSW
14.08.2018 08:00:00 8,9 8,6 28 15 - - W
14.08.2018 07:00:00 8,2 8,2 31 17 54 29 WNW
14.08.2018 06:00:00 7,7 7,6 29 16 48 26 W
14.08.2018 05:00:00 7,6 7,6 24 13 - - W
14.08.2018 04:00:00 8,1 8,1 9 5 - - S
14.08.2018 03:00:00 8,7 8,7 21 11 - - SSW
14.08.2018 02:00:00 9,3 9,2 22 12 - - SW
14.08.2018 01:00:00 9,6 9,6 24 13 - - SSW
14.08.2018 00:00:00 9,7 9,7 16 9 - - SSW
13.08.2018 23:00:00 9,7 9,7 21 11 - - SSW
13.08.2018 22:00:00 9,8 9,7 22 12 - - SSW
13.08.2018 21:00:00 9,9 9,9 22 12 - - S
13.08.2018 20:00:00 10,0 10,0 21 11 - - SSW
13.08.2018 19:00:00 10,0 10,0 21 11 - - SSW
13.08.2018 18:00:00 10,1 10,1 21 11 - - S
13.08.2018 17:00:00 10,1 10,1 15 8 - - S
13.08.2018 16:00:00 10,2 10,2 15 8 - - SSW
13.08.2018 15:00:00 10,0 10,0 13 7 - - SSW
13.08.2018 14:00:00 10,2 10,2 13 7 - - S
13.08.2018 13:00:00 9,7 9,7 11 6 - - SE
13.08.2018 12:00:00 9,7 9,6 8 4 - - SE
13.08.2018 11:00:00 9,2 9,1 8 4 - - E
13.08.2018 10:00:00 8,6 8,5 16 9 - - ENE
13.08.2018 09:00:00 8,2 8,2 21 11 - - ENE
13.08.2018 08:00:00 8,2 8,2 16 9 - - NE
13.08.2018 07:00:00 8,1 8,0 15 8 - - NE
13.08.2018 06:00:00 8,1 8,0 18 10 - - NE
13.08.2018 05:00:00 8,0 8,0 16 9 - - NNE
13.08.2018 04:00:00 8,0 8,0 21 11 - - NE
13.08.2018 03:00:00 7,9 7,9 28 15 - - ENE
13.08.2018 02:00:00 7,9 7,9 15 8 - - NE
13.08.2018 01:00:00 7,9 7,9 9 5 - - NE
13.08.2018 00:00:00 7,9 7,9 29 16 - - E
12.08.2018 23:00:00 7,8 7,8 24 13 52 28 E
12.08.2018 22:00:00 7,7 7,7 18 10 - - NNE
12.08.2018 21:00:00 7,6 7,6 13 7 - - ENE
12.08.2018 20:00:00 7,3 7,3 24 13 - - NE
12.08.2018 19:00:00 7,6 7,6 21 11 - - NE
12.08.2018 18:00:00 8,1 8,0 15 8 - - N
12.08.2018 17:00:00 8,3 8,2 11 6 - - N
12.08.2018 16:00:00 8,1 8,1 9 5 - - N
12.08.2018 15:00:00 8,0 8,0 8 4 - - NNE
12.08.2018 14:00:00 7,9 7,9 18 10 - - E
12.08.2018 13:00:00 8,5 8,5 26 14 - - ESE
12.08.2018 12:00:00 8,4 8,3 24 13 - - ESE
12.08.2018 11:00:00 8,1 8,1 21 11 - - E
12.08.2018 10:00:00 8,1 8,0 22 12 50 27 ESE
12.08.2018 09:00:00 7,8 7,7 26 14 48 26 ESE
12.08.2018 08:00:00 7,4 7,4 16 9 - - E
12.08.2018 07:00:00 7,4 7,4 8 4 54 29 ESE
12.08.2018 06:00:00 7,2 5,8 18 10 - - ESE
12.08.2018 05:00:00 7,7 4,6 31 17 57 31 ESE
12.08.2018 04:00:00 8,1 4,7 41 22 54 29 ESE
12.08.2018 03:00:00 7,5 5,6 39 21 50 27 SE
12.08.2018 02:00:00 7,0 5,9 34 18 46 25 SE
12.08.2018 01:00:00 7,1 5,4 41 22 48 26 SE
12.08.2018 00:00:00 6,5 5,8 15 8 - - S
11.08.2018 23:00:00 7,1 5,1 29 16 - - SE
11.08.2018 22:00:00 7,9 3,8 16 9 - - SSE
11.08.2018 21:00:00 8,0 4,5 15 8 - - SSE
11.08.2018 20:00:00 8,0 4,7 15 8 - - S
11.08.2018 19:00:00 8,4 4,3 16 9 - - S
11.08.2018 18:00:00 8,5 3,2 16 9 - - SSW
11.08.2018 17:00:00 8,7 1,4 15 8 - - SSW
11.08.2018 16:00:00 8,6 0,9 18 10 - - SW
11.08.2018 15:00:00 8,3 1,2 22 12 - - SW
11.08.2018 14:00:00 8,2 1,6 15 8 - - S
11.08.2018 13:00:00 7,9 0,1 11 6 - - SSW
11.08.2018 12:00:00 8,0 0,9 11 6 - - SSW
11.08.2018 11:00:00 7,0 1,6 15 8 - - S
11.08.2018 10:00:00 6,4 2,1 9 5 - - SSW
11.08.2018 09:00:00 6,4 1,4 8 4 - - NW
11.08.2018 08:00:00 5,7 3,9 9 5 - - NW
11.08.2018 07:00:00 5,0 5,0 21 11 - - WNW
11.08.2018 06:00:00 4,8 4,8 13 7 - - NW
11.08.2018 05:00:00 4,6 4,6 22 12 - - NW
11.08.2018 04:00:00 4,6 4,6 28 15 - - NW
11.08.2018 03:00:00 5,5 5,5 28 15 - - NW
11.08.2018 02:00:00 6,0 5,9 24 13 - - NW
11.08.2018 01:00:00 5,7 5,6 24 13 - - NNW
11.08.2018 00:00:00 6,1 6,1 13 7 - - N
10.08.2018 23:00:00 6,0 5,7 26 14 - - NNW
10.08.2018 22:00:00 6,4 5,4 26 14 - - NW
10.08.2018 21:00:00 6,7 5,7 24 13 - - NW
10.08.2018 20:00:00 7,4 5,2 16 9 - - NW
10.08.2018 19:00:00 7,5 4,2 15 8 - - NNW
10.08.2018 18:00:00 7,0 1,8 16 9 - - NNE
10.08.2018 17:00:00 6,2 5,9 16 9 - - NNE
10.08.2018 16:00:00 7,5 2,4 9 5 - - N
10.08.2018 15:00:00 7,3 2,3 26 14 - - N
10.08.2018 14:00:00 8,3 3,6 28 15 - - WNW
10.08.2018 13:00:00 8,0 2,7 8 4 - - SSW
10.08.2018 12:00:00 7,7 0,8 9 5 - - WNW
10.08.2018 11:00:00 7,5 1,6 4 2 - - ESE
10.08.2018 10:00:00 6,7 2,2 2 1 - - SSE
10.08.2018 09:00:00 5,7 2,9 4 2 - - N
10.08.2018 08:00:00 5,7 3,5 5 3 - - WNW
10.08.2018 07:00:00 5,2 3,0 8 4 - - NNW
10.08.2018 06:00:00 5,9 3,8 9 5 - - W
10.08.2018 05:00:00 5,7 4,1 18 10 - - WNW
10.08.2018 04:00:00 5,7 4,9 15 8 - - W
10.08.2018 03:00:00 5,3 4,8 4 2 - - W
10.08.2018 02:00:00 5,0 4,7 8 4 - - WNW
10.08.2018 01:00:00 5,5 5,4 11 6 - - WSW
10.08.2018 00:00:00 5,9 5,5 11 6 - - WSW
09.08.2018 23:00:00 5,6 5,2 13 7 - - WNW
09.08.2018 22:00:00 6,4 4,2 15 8 - - W
09.08.2018 21:00:00 6,8 4,5 28 15 - - W
09.08.2018 20:00:00 6,9 5,1 22 12 48 26 WSW
09.08.2018 19:00:00 7,1 4,2 24 13 - - WSW
09.08.2018 18:00:00 7,2 3,0 24 13 52 28 WSW
09.08.2018 17:00:00 7,8 2,5 28 15 50 27 SW
09.08.2018 16:00:00 8,4 1,0 31 17 57 31 SW
09.08.2018 15:00:00 8,1 3,5 35 19 54 29 W
09.08.2018 14:00:00 8,4 3,2 42 23 67 36 SW
09.08.2018 13:00:00 7,9 3,5 44 24 63 34 SSW
09.08.2018 12:00:00 6,2 3,3 44 24 57 31 SW
09.08.2018 11:00:00 4,7 3,1 42 23 55 30 SSW
09.08.2018 10:00:00 4,3 3,6 46 25 61 33 SSW
09.08.2018 09:00:00 3,7 3,0 39 21 57 31 SSW
09.08.2018 08:00:00 3,1 1,7 42 23 50 27 SSW
09.08.2018 07:00:00 3,5 3,4 37 20 52 28 SSW
09.08.2018 06:00:00 3,5 3,5 35 19 52 28 SW
09.08.2018 05:00:00 3,6 3,6 35 19 54 29 SW
09.08.2018 04:00:00 3,4 3,4 39 21 50 27 WSW
09.08.2018 03:00:00 3,6 3,6 39 21 46 25 SW
09.08.2018 02:00:00 4,1 4,0 29 16 - - SW
09.08.2018 01:00:00 4,0 4,0 31 17 - - WSW
09.08.2018 00:00:00 4,5 4,3 31 17 - - WSW
08.08.2018 23:00:00 5,0 4,3 35 19 48 26 WSW
08.08.2018 22:00:00 5,4 3,9 28 15 59 32 W
08.08.2018 21:00:00 6,3 3,0 50 27 65 35 WSW
08.08.2018 20:00:00 6,9 4,1 39 21 52 28 WSW

tt = Température de l'air
td = dewpoint
ff = Vitesse du vent
fx = gusts
dd = Direction du vent

stations d'obs. à proximité